Home > Products > Valid Products > TAF

000
FTUS43 KBIS 190900 AAA
TAFJMS
TAF AMD
KJMS 190924Z 1909/2006 33015G21KT P6SM -RA OVC007
     FM191000 32019G28KT P6SM -RA OVC007
     FM191200 32022G31KT P6SM OVC050
     FM200200 32016G24KT P6SM BKN070=



000
FTUS43 KBIS 190600 AAA
TAFMOT
TAF AMD
KMOT 190609Z 1906/2006 30017KT P6SM OVC050
     FM191200 30021G31KT P6SM BKN020
     FM191900 30021G31KT P6SM BKN050
     FM200300 30014KT P6SM SCT070=



000
FTUS43 KBIS 190500
TAFDIK
TAF
KDIK 190526Z 1906/2006 32013KT P6SM BKN070
     FM191300 32021G31KT P6SM BKN040
     FM200200 32012KT P6SM SCT060=



000
FTUS43 KBIS 190500
TAFBIS
TAF
KBIS 190526Z 1906/2006 33015G24KT P6SM -RA OVC040
     FM190800 32018G28KT P6SM OVC050
     FM200300 32013KT P6SM BKN070=



000
FTUS43 KBIS 190500
TAFJMS
TAF
KJMS 190526Z 1906/2006 32017KT P6SM -RA OVC080
     FM191000 32019G28KT P6SM -RA OVC060
     FM191200 32022G31KT P6SM OVC060
     FM200200 32016G24KT P6SM BKN070=



000
FTUS43 KBIS 190500
TAFISN
TAF
KISN 190526Z 1906/2006 32013KT P6SM FEW080
     FM191200 33020G29KT P6SM BKN020
     FM191900 33020G29KT P6SM BKN050
     FM200200 34012KT P6SM FEW090=



000
FTUS43 KBIS 190500
TAFMOT
TAF
KMOT 190526Z 1906/2006 30013KT P6SM OVC050
     FM191200 30021G31KT P6SM BKN020
     FM191900 30021G31KT P6SM BKN050
     FM200300 30014KT P6SM SCT070=



000
FTUS43 KBIS 190500
TAFJMS
TAF
KJMS 190526Z 1906/2006 32017KT P6SM -RA OVC080
     FM191000 32019G28KT P6SM -RA OVC060
     FM191200 32022G31KT P6SM OVC060
     FM200200 32016G24KT P6SM BKN070=



000
FTUS43 KBIS 190500
TAFBIS
TAF
KBIS 190526Z 1906/2006 33015G24KT P6SM -RA OVC040
     FM190800 32018G28KT P6SM OVC050
     FM200300 32013KT P6SM BKN070=



000
FTUS43 KBIS 190500
TAFISN
TAF
KISN 190526Z 1906/2006 32013KT P6SM FEW080
     FM191200 33020G29KT P6SM BKN020
     FM191900 33020G29KT P6SM BKN050
     FM200200 34012KT P6SM FEW090=



000
FTUS43 KBIS 190500
TAFDIK
TAF
KDIK 190526Z 1906/2006 32013KT P6SM BKN070
     FM191300 32021G31KT P6SM BKN040
     FM200200 32012KT P6SM SCT060=



000
FTUS43 KBIS 190500
TAFMOT
TAF
KMOT 190526Z 1906/2006 30013KT P6SM OVC050
     FM191200 30021G31KT P6SM BKN020
     FM191900 30021G31KT P6SM BKN050
     FM200300 30014KT P6SM SCT070=



000
FTUS43 KBIS 190400 AAA
TAFBIS
TAF AMD
KBIS 190441Z 1905/1924 25006KT P6SM -RA BKN011 OVC018
     FM190800 33017G25KT P6SM OVC060
     FM191200 31016G24KT P6SM SCT200
     FM191500 32020G29KT P6SM BKN100
     FM192000 32020G30KT P6SM VCSH BKN070=



000
FTUS43 KBIS 190400 AAA
TAFBIS
TAF AMD
KBIS 190441Z 1905/1924 25006KT P6SM -RA BKN011 OVC018
     FM190800 33017G25KT P6SM OVC060
     FM191200 31016G24KT P6SM SCT200
     FM191500 32020G29KT P6SM BKN100
     FM192000 32020G30KT P6SM VCSH BKN070=



000
FTUS43 KBIS 190300 AAA
TAFJMS
TAF AMD
KJMS 190306Z 1903/1924 25011KT P6SM VCSH OVC080
     FM190500 30010KT P6SM -SHRA OVC060
     FM190800 33016G24KT P6SM -SHRA OVC050
     FM191100 33019G28KT P6SM OVC045
     FM192000 33022G32KT P6SM VCSH OVC060=



000
FTUS43 KBIS 190300 AAA
TAFMOT
TAF AMD
KMOT 190305Z 1903/1924 22005KT P6SM -RA SCT030 OVC045
     FM190500 32016G24KT P6SM OVC060
     FM191000 31016G24KT P6SM SCT200
     FM191300 30018G26KT P6SM BKN045
     FM191900 32024G34KT P6SM VCSH OVC060=



000
FTUS43 KBIS 190000 AAA
TAFDIK
TAF AMD
KDIK 190017Z 1900/1924 34007KT P6SM -SHRA OVC070
      TEMPO 1900/1901 3SM RA BKN025 OVC070
     FM190400 35016G24KT P6SM OVC090
     FM190900 32016G24KT P6SM BKN250
     FM191400 31020G29KT P6SM BKN060
     FM191900 32022G32KT P6SM VCSH BKN060=



000
FTUS43 KBIS 182300
TAFBIS
TAF
KBIS 182336Z 1900/1924 18014KT P6SM VCSH OVC080
     FM190200 25006KT P6SM -SHRA OVC060
     FM190400 33012KT P6SM -SHRA OVC060
     FM190900 33017G25KT P6SM OVC060
     FM191200 31016G24KT P6SM SCT200
     FM191500 32020G29KT P6SM BKN100
     FM192000 32020G30KT P6SM VCSH BKN070=



000
FTUS43 KBIS 182300
TAFMOT
TAF
KMOT 182336Z 1900/1924 30015G25KT P6SM -SHRA OVC060
     FM190500 32016G24KT P6SM OVC060
     FM191000 31016G24KT P6SM SCT200
     FM191300 30018G26KT P6SM BKN045
     FM191900 32024G34KT P6SM VCSH OVC060=



000
FTUS43 KBIS 182300
TAFJMS
TAF
KJMS 182336Z 1900/1924 24019G25KT P6SM OVC080
     FM190400 23009KT P6SM -SHRA OVC070
     FM190500 30010KT P6SM -SHRA OVC080
     FM190800 33016G24KT P6SM -SHRA OVC050
     FM191100 33019G28KT P6SM OVC045
     FM192000 33022G32KT P6SM VCSH OVC060=



000
FTUS43 KBIS 182300
TAFDIK
TAF
KDIK 182336Z 1900/1924 34017KT P6SM -SHRA OVC070
     FM190400 35016G24KT P6SM OVC090
     FM190900 32016G24KT P6SM BKN250
     FM191400 31020G29KT P6SM BKN060
     FM191900 32022G32KT P6SM VCSH BKN060=



000
FTUS43 KBIS 182300
TAFISN
TAF
KISN 182336Z 1900/1924 35019G26KT P6SM VCSH OVC100
     FM190500 32014KT P6SM SCT250
     FM191100 31015G23KT P6SM BKN050
     FM191800 33022G31KT P6SM VCSH OVC060=



000
FTUS43 KBIS 182300
TAFDIK
TAF
KDIK 182336Z 1900/1924 34017KT P6SM -SHRA OVC070
     FM190400 35016G24KT P6SM OVC090
     FM190900 32016G24KT P6SM BKN250
     FM191400 31020G29KT P6SM BKN060
     FM191900 32022G32KT P6SM VCSH BKN060=



000
FTUS43 KBIS 182300
TAFBIS
TAF
KBIS 182336Z 1900/1924 18014KT P6SM VCSH OVC080
     FM190200 25006KT P6SM -SHRA OVC060
     FM190400 33012KT P6SM -SHRA OVC060
     FM190900 33017G25KT P6SM OVC060
     FM191200 31016G24KT P6SM SCT200
     FM191500 32020G29KT P6SM BKN100
     FM192000 32020G30KT P6SM VCSH BKN070=



000
FTUS43 KBIS 182300
TAFJMS
TAF
KJMS 182336Z 1900/1924 24019G25KT P6SM OVC080
     FM190400 23009KT P6SM -SHRA OVC070
     FM190500 30010KT P6SM -SHRA OVC080
     FM190800 33016G24KT P6SM -SHRA OVC050
     FM191100 33019G28KT P6SM OVC045
     FM192000 33022G32KT P6SM VCSH OVC060=



000
FTUS43 KBIS 182300
TAFMOT
TAF
KMOT 182336Z 1900/1924 30015G25KT P6SM -SHRA OVC060
     FM190500 32016G24KT P6SM OVC060
     FM191000 31016G24KT P6SM SCT200
     FM191300 30018G26KT P6SM BKN045
     FM191900 32024G34KT P6SM VCSH OVC060=



000
FTUS43 KBIS 182300
TAFISN
TAF
KISN 182336Z 1900/1924 35019G26KT P6SM VCSH OVC100
     FM190500 32014KT P6SM SCT250
     FM191100 31015G23KT P6SM BKN050
     FM191800 33022G31KT P6SM VCSH OVC060=



000
FTUS43 KBIS 182200 AAA
TAFDIK
TAF AMD
KDIK 182236Z 1823/1918 27017G30KT P6SM -SHRA VCTS OVC070CB
     FM190100 33018G29KT P6SM BKN070
     FM191400 32022G33KT P6SM BKN040=



000
FTUS43 KBIS 182200 AAA
TAFMOT
TAF AMD
KMOT 182220Z 1822/1918 19005KT P6SM BKN100
     FM182300 33018G26KT P6SM VCSH BKN080
      TEMPO 1900/1903 -SHRA BKN050
     FM191300 32022G34KT P6SM VCSH BKN040=



000
FTUS43 KBIS 182200 AAD
TAFISN
TAF AMD
KISN 182218Z 1822/1918 35016KT P6SM VCSH BKN080 OVC100
     FM190000 33017G24KT P6SM BKN080
     FM190500 31014KT P6SM SCT110
     FM191200 31017G29KT P6SM VCSH BKN040=



000
FTUS43 KBIS 182200 AAD
TAFISN
TAF AMD
KISN 182218Z 1822/1918 35016KT P6SM VCSH BKN080 OVC100
     FM190000 33017G24KT P6SM BKN080
     FM190500 31014KT P6SM SCT110
     FM191200 31017G29KT P6SM VCSH BKN040=



000
FTUS43 KBIS 181900 AAC
TAFISN
TAF AMD
KISN 181957Z 1820/1918 30018G26KT P6SM VCSH BKN080
      TEMPO 1820/1823 5SM -SHRA BKN060
     FM190000 33021G30KT P6SM BKN080
     FM190500 31014KT P6SM SCT110
     FM191200 31017G29KT P6SM VCSH BKN040=



000
FTUS43 KBIS 181900 AAC
TAFISN
TAF AMD
KISN 181957Z 1820/1918 30018G26KT P6SM VCSH BKN080
      TEMPO 1820/1823 5SM -SHRA BKN060
     FM190000 33021G30KT P6SM BKN080
     FM190500 31014KT P6SM SCT110
     FM191200 31017G29KT P6SM VCSH BKN040=



000
FTUS43 KBIS 181800 CCA
TAFISN
TAF COR
KISN 181840Z 1819/1918 21013G23KT P6SM VCSH BKN110
      TEMPO 1819/1820 VRB15G25KT 5SM -TSRA BKN060CB
     FM182000 30012KT P6SM VCSH BKN100
      TEMPO 1820/1823 5SM -SHRA BKN060
     FM190000 33021G30KT P6SM BKN080
     FM190500 31014KT P6SM SCT110
     FM191200 31017G29KT P6SM VCSH BKN040=



000
FTUS43 KBIS 181800 AAB
TAFISN
TAF AMD
KISN 181840Z 1819/1918 21013G23KT P6SM VCSH BKN110
      TEMPO 1819/1820 VRB15G25KT 5SM -SHRA BKN060
     FM182000 30012KT P6SM VCSH BKN100
      TEMPO 1820/1823 5SM -SHRA BKN060
     FM190000 33021G30KT P6SM BKN080
     FM190500 31014KT P6SM SCT110
     FM191200 31017G29KT P6SM VCSH BKN040=



000
FTUS43 KBIS 181800 AAB
TAFISN
TAF AMD
KISN 181840Z 1819/1918 21013G23KT P6SM VCSH BKN110
      TEMPO 1819/1820 VRB15G25KT 5SM -SHRA BKN060
     FM182000 30012KT P6SM VCSH BKN100
      TEMPO 1820/1823 5SM -SHRA BKN060
     FM190000 33021G30KT P6SM BKN080
     FM190500 31014KT P6SM SCT110
     FM191200 31017G29KT P6SM VCSH BKN040=



000
FTUS43 KBIS 181800 CCA
TAFISN
TAF COR
KISN 181840Z 1819/1918 21013G23KT P6SM VCSH BKN110
      TEMPO 1819/1820 VRB15G25KT 5SM -TSRA BKN060CB
     FM182000 30012KT P6SM VCSH BKN100
      TEMPO 1820/1823 5SM -SHRA BKN060
     FM190000 33021G30KT P6SM BKN080
     FM190500 31014KT P6SM SCT110
     FM191200 31017G29KT P6SM VCSH BKN040=



000
FTUS43 KBIS 181800 AAA
TAFISN
TAF AMD
KISN 181830Z 1819/1918 21013G23KT P6SM VCSH BKN110
     FM182000 30012KT P6SM VCSH BKN100
      TEMPO 1820/1823 5SM -SHRA BKN060
     FM190000 33021G30KT P6SM BKN080
     FM190500 31014KT P6SM SCT110
     FM191200 31017G29KT P6SM VCSH BKN040=



000
FTUS43 KBIS 181800 AAA
TAFISN
TAF AMD
KISN 181830Z 1819/1918 21013G23KT P6SM VCSH BKN110
     FM182000 30012KT P6SM VCSH BKN100
      TEMPO 1820/1823 5SM -SHRA BKN060
     FM190000 33021G30KT P6SM BKN080
     FM190500 31014KT P6SM SCT110
     FM191200 31017G29KT P6SM VCSH BKN040=



000
FTUS43 KBIS 181700
TAFJMS
TAF
KJMS 181724Z 1818/1918 14009KT P6SM BKN110
     FM190200 23009KT P6SM OVC090
     FM190400 28014G22KT P6SM OVC080
     FM190500 33017G25KT 5SM -SHRA OVC040
     FM190900 32019G30KT 4SM -RA BR OVC020=



000
FTUS43 KBIS 181700
TAFBIS
TAF
KBIS 181724Z 1818/1918 16004KT P6SM BKN100
     FM182000 17011KT P6SM VCSH OVC070
     FM190200 33019G29KT 5SM -SHRA OVC040
     FM190900 33017G25KT P6SM OVC060
     FM191600 32022G33KT P6SM BKN040=



000
FTUS43 KBIS 181700
TAFISN
TAF
KISN 181724Z 1818/1918 21011G19KT P6SM FEW250
     FM182000 30012KT P6SM VCSH BKN100
      TEMPO 1821/1824 5SM -SHRA BKN060
     FM190000 33021G30KT P6SM BKN080
     FM190500 31014KT P6SM SCT110
     FM191200 31017G29KT P6SM VCSH BKN040=



000
FTUS43 KBIS 181700
TAFMOT
TAF
KMOT 181724Z 1818/1918 17009KT P6SM FEW240
     FM182100 25015G23KT P6SM BKN100
     FM190000 32020G29KT P6SM VCSH BKN080
      TEMPO 1900/1903 5SM -SHRA BKN050
     FM191300 32022G34KT P6SM VCSH BKN040=



000
FTUS43 KBIS 181700
TAFDIK
TAF
KDIK 181724Z 1818/1918 20008KT P6SM SKC
     FM182100 24013KT P6SM BKN080
     FM182300 35024G34KT 5SM -SHRA BKN060
     FM190400 34018G29KT P6SM BKN070
     FM191400 32022G33KT P6SM BKN040=



000
FTUS43 KBIS 181500 AAA
TAFMOT
TAF AMD
KMOT 181554Z 1816/1912 14009KT P6SM FEW240
     FM182000 21013KT P6SM BKN210
     FM182100 26015G23KT P6SM BKN100
     FM182300 32020G29KT P6SM VCSH BKN040
      TEMPO 1900/1903 5SM -SHRA=



000
FTUS43 KBIS 181500 AAA
TAFBIS
TAF AMD
KBIS 181554Z 1816/1912 12004KT P6SM BKN100
     FM182000 17011KT P6SM VCSH OVC070
     FM190200 33017G25KT 5SM -SHRA OVC040
     FM190900 33017G25KT P6SM OVC060=



000
FTUS43 KBIS 181500 AAA
TAFJMS
TAF AMD
KJMS 181554Z 1816/1912 13013KT P6SM SCT130
     FM181800 14009KT P6SM BKN110
     FM190200 23009KT P6SM OVC090
     FM190400 28014G22KT P6SM OVC080
     FM190500 33017G25KT 5SM -SHRA OVC040=



000
FTUS43 KBIS 181500 AAA
TAFDIK
TAF AMD
KDIK 181554Z 1816/1912 20008KT P6SM BKN070
     FM182100 26013KT P6SM VCSH BKN080
     FM182300 35024G34KT 5SM -SHRA BKN060
     FM190400 34020G29KT P6SM BKN070=



000
FTUS43 KBIS 181500 AAA
TAFISN
TAF AMD
KISN 181554Z 1816/1912 17007KT P6SM FEW250
     FM182000 30012KT P6SM VCSH BKN070
      TEMPO 1821/1823 5SM -SHRA BKN040
     FM182300 33021G30KT P6SM BKN080
     FM190500 31014KT P6SM SCT110
     FM191000 31015G23KT P6SM VCSH BKN040=



000
FTUS43 KBIS 181100
TAFMOT
TAF
KMOT 181120Z 1812/1912 12008KT P6SM SKC
     FM181800 22015KT P6SM SCT090
     FM182100 25018G26KT P6SM BKN070
     FM190000 28018G26KT P6SM OVC060
     FM190200 31018G26KT P6SM OVC050=



000
FTUS43 KBIS 181100
TAFJMS
TAF
KJMS 181120Z 1812/1912 07009KT P6SM SKC
     FM181500 13011KT P6SM BKN090
     FM190200 24010KT P6SM -RA OVC060
     FM190400 29017G27KT P6SM -RA OVC060=



000
FTUS43 KBIS 181100
TAFISN
TAF
KISN 181120Z 1812/1912 15007KT P6SM SKC
     FM181600 25011KT P6SM SCT090
     FM182100 31018G25KT P6SM BKN060
     FM190200 32015G20KT P6SM BKN070=



000
FTUS43 KBIS 181100
TAFDIK
TAF
KDIK 181120Z 1812/1912 14009KT P6SM SCT100
     FM181800 20010KT P6SM OVC070
     FM182200 30018G26KT P6SM -RA OVC060
     FM190000 33024G32KT P6SM -RA OVC060
     FM190300 35015G25KT P6SM BKN080=



000
FTUS43 KBIS 181100
TAFBIS
TAF
KBIS 181120Z 1812/1912 12006KT P6SM SKC
     FM182000 20007KT P6SM BKN080
     FM190000 30013KT P6SM -RA OVC070
     FM190600 33016KT P6SM OVC070=



000
FTUS43 KBIS 180500
TAFMOT
TAF
KMOT 180535Z 1806/1906 11008KT P6SM SKC
     FM181900 21015KT P6SM SCT090
     FM182200 24015KT P6SM BKN070
     FM190000 27015KT P6SM OVC060
     FM190200 30015KT P6SM OVC050=



000
FTUS43 KBIS 180500
TAFJMS
TAF
KJMS 180535Z 1806/1906 07009KT P6SM FEW100
     FM181500 13009KT P6SM BKN090
     FM190000 05009KT P6SM -RA OVC060=



000
FTUS43 KBIS 180500
TAFBIS
TAF
KBIS 180535Z 1806/1906 06006KT P6SM FEW100
     FM181400 15007KT P6SM BKN080
     FM190000 33011KT P6SM -RA OVC070=



000
FTUS43 KBIS 180500
TAFDIK
TAF
KDIK 180535Z 1806/1906 18008KT P6SM SCT100
     FM182100 25010KT P6SM -RA OVC070
     FM182300 33015KT P6SM -RA OVC060=



000
FTUS43 KBIS 180500
TAFISN
TAF
KISN 180535Z 1806/1906 12007KT P6SM SKC
     FM181200 16007KT P6SM FEW100
     FM181700 24013KT P6SM BKN090
     FM182100 33018G25KT P6SM -RA BKN060
     FM190200 32015G20KT P6SM BKN070=



000
FTUS43 KBIS 180500
TAFMOT
TAF
KMOT 180535Z 1806/1906 11008KT P6SM SKC
     FM181900 21015KT P6SM SCT090
     FM182200 24015KT P6SM BKN070
     FM190000 27015KT P6SM OVC060
     FM190200 30015KT P6SM OVC050=



000
FTUS43 KBIS 180500
TAFBIS
TAF
KBIS 180535Z 1806/1906 06006KT P6SM FEW100
     FM181400 15007KT P6SM BKN080
     FM190000 33011KT P6SM -RA OVC070=



000
FTUS43 KBIS 180500
TAFISN
TAF
KISN 180535Z 1806/1906 12007KT P6SM SKC
     FM181200 16007KT P6SM FEW100
     FM181700 24013KT P6SM BKN090
     FM182100 33018G25KT P6SM -RA BKN060
     FM190200 32015G20KT P6SM BKN070=



000
FTUS43 KBIS 180500
TAFJMS
TAF
KJMS 180535Z 1806/1906 07009KT P6SM FEW100
     FM181500 13009KT P6SM BKN090
     FM190000 05009KT P6SM -RA OVC060=



000
FTUS43 KBIS 180500
TAFDIK
TAF
KDIK 180535Z 1806/1906 18008KT P6SM SCT100
     FM182100 25010KT P6SM -RA OVC070
     FM182300 33015KT P6SM -RA OVC060=



000
FTUS43 KBIS 180300 AAA
TAFJMS
TAF AMD
KJMS 180302Z 1803/1824 06011KT P6SM SCT300
     FM180600 08007KT P6SM SCT250
     FM181200 11006KT P6SM SCT170 BKN220
     FM181800 14011KT P6SM BKN090 OVC110=



000
FTUS43 KBIS 180300 AAA
TAFJMS
TAF AMD
KJMS 180302Z 1803/1824 06011KT P6SM SCT300
     FM180600 08007KT P6SM SCT250
     FM181200 11006KT P6SM SCT170 BKN220
     FM181800 14011KT P6SM BKN090 OVC110=



000
FTUS43 KBIS 180300 AAA
TAFDIK
TAF AMD
KDIK 180301Z 1803/1824 16005KT P6SM BKN250
     FM181100 18007KT P6SM FEW110 BKN200
     FM181600 19008KT P6SM SCT070 BKN140
     FM181900 22009KT P6SM -RA SCT045 BKN080
     FM182200 28011KT P6SM -RA BKN045 OVC070=



000
FTUS43 KBIS 180300 AAA
TAFDIK
TAF AMD
KDIK 180301Z 1803/1824 16005KT P6SM BKN250
     FM181100 18007KT P6SM FEW110 BKN200
     FM181600 19008KT P6SM SCT070 BKN140
     FM181900 22009KT P6SM -RA SCT045 BKN080
     FM182200 28011KT P6SM -RA BKN045 OVC070=



000
FTUS43 KBIS 180200 AAA
TAFMOT
TAF AMD
KMOT 180259Z 1803/1824 01006KT P6SM SKC
     FM180500 10007KT P6SM SKC
     FM180900 14008KT P6SM FEW250
     FM181400 17011KT P6SM SCT220
     FM181900 20012KT P6SM SCT090 BKN120 BKN200=



000
FTUS43 KBIS 180200 AAA
TAFMOT
TAF AMD
KMOT 180259Z 1803/1824 01006KT P6SM SKC
     FM180500 10007KT P6SM SKC
     FM180900 14008KT P6SM FEW250
     FM181400 17011KT P6SM SCT220
     FM181900 20012KT P6SM SCT090 BKN120 BKN200=



000
FTUS43 KBIS 180200 AAA
TAFISN
TAF AMD
KISN 180258Z 1803/1824 07004KT P6SM SKC
     FM180800 13007KT P6SM FEW300
     FM181500 19006KT P6SM SCT180
     FM181700 23008KT P6SM SCT080 BKN110
     FM182100 32018G25KT P6SM -RA BKN050 OVC070=



000
FTUS43 KBIS 180200 AAA
TAFBIS
TAF AMD
KBIS 180258Z 1803/1824 06004KT P6SM SCT300
     FM180700 09006KT P6SM SCT250
     FM181300 13006KT P6SM SCT150 BKN190
     FM181700 17010KT P6SM BKN080 OVC110=



000
FTUS43 KBIS 172300
TAFJMS
TAF
KJMS 172340Z 1800/1824 36008KT P6SM SCT300
     FM180200 04008KT P6SM SCT300
     FM180500 06007KT P6SM SCT250
     FM181200 11006KT P6SM SCT170 BKN220
     FM181800 14011KT P6SM BKN090 OVC110=



000
FTUS43 KBIS 172300
TAFISN
TAF
KISN 172340Z 1800/1824 03006KT P6SM SKC
     FM180200 09004KT P6SM SKC
     FM180800 13007KT P6SM FEW300
     FM181500 19006KT P6SM SCT180
     FM181700 23008KT P6SM SCT080 BKN110
     FM182100 32018G25KT P6SM -RA BKN050 OVC070=



000
FTUS43 KBIS 172300
TAFBIS
TAF
KBIS 172340Z 1800/1824 04005KT P6SM SCT300
     FM180300 07004KT P6SM SCT300
     FM180600 09006KT P6SM SCT250
     FM181300 13006KT P6SM SCT150 BKN190
     FM181700 17010KT P6SM BKN080 OVC110=



000
FTUS43 KBIS 172300
TAFDIK
TAF
KDIK 172340Z 1800/1824 10005KT P6SM SCT300
     FM180400 13005KT P6SM BKN250
     FM181100 16007KT P6SM FEW110 BKN200
     FM181600 19008KT P6SM SCT070 BKN140
     FM181900 22009KT P6SM -RA SCT045 BKN080
     FM182200 28011KT P6SM -RA BKN045 OVC070=



000
FTUS43 KBIS 172300
TAFMOT
TAF
KMOT 172340Z 1800/1824 01011KT P6SM SKC
     FM180200 05006KT P6SM SKC
     FM180500 10007KT P6SM SKC
     FM180900 14008KT P6SM FEW250
     FM181400 17011KT P6SM SCT220
     FM181900 20012KT P6SM SCT090 BKN120 BKN200=



000
FTUS43 KBIS 171700
TAFISN
TAF
KISN 171720Z 1718/1818 31006KT P6SM SKC
     FM172200 07004KT P6SM SKC
     FM180800 13005KT P6SM FEW250
     FM181500 19006KT P6SM SCT180
     FM181700 24008KT P6SM BKN210=



000
FTUS43 KBIS 171700
TAFDIK
TAF
KDIK 171720Z 1718/1818 33006KT P6SM SKC
     FM172200 04005KT P6SM SKC
     FM180200 11005KT P6SM FEW250
     FM181500 17007KT P6SM SCT180
     FM181700 18008KT P6SM BKN090=



000
FTUS43 KBIS 171700
TAFBIS
TAF
KBIS 171720Z 1718/1818 34009KT P6SM SKC
     FM180000 03006KT P6SM SKC
     FM180600 09006KT P6SM FEW250
     FM181600 15008KT P6SM BKN090=



000
FTUS43 KBIS 171700
TAFJMS
TAF
KJMS 171720Z 1718/1818 30011G19KT P6SM SKC
     FM172200 34008KT P6SM SKC
     FM180200 04008KT P6SM FEW250
     FM181300 12006KT P6SM SCT170
     FM181600 14009KT P6SM BKN150=



000
FTUS43 KBIS 171700
TAFMOT
TAF
KMOT 171720Z 1718/1818 31011G19KT P6SM SKC
     FM172100 35008KT P6SM SKC
     FM180000 03008KT P6SM SKC
     FM180500 10007KT P6SM FEW250=



000
FTUS43 KBIS 171100
TAFISN
TAF
KISN 171120Z 1712/1812 VRB05KT P6SM SKC
     FM172200 09005KT P6SM SKC=



000
FTUS43 KBIS 171100
TAFJMS
TAF
KJMS 171120Z 1712/1812 30006KT P6SM SKC
     FM171700 33010KT P6SM SKC
     FM180100 07007KT P6SM FEW100=



000
FTUS43 KBIS 171100
TAFBIS
TAF
KBIS 171120Z 1712/1812 VRB04KT P6SM SKC
     FM180100 08006KT P6SM FEW100=



000
FTUS43 KBIS 171100
TAFJMS
TAF
KJMS 171120Z 1712/1812 30006KT P6SM SKC
     FM171700 33010KT P6SM SKC
     FM180100 07007KT P6SM FEW100=



000
FTUS43 KBIS 171100
TAFDIK
TAF
KDIK 171120Z 1712/1812 26005KT P6SM SKC
     FM171700 32005KT P6SM SKC
     FM172300 14005KT P6SM FEW100=



000
FTUS43 KBIS 171100
TAFDIK
TAF
KDIK 171120Z 1712/1812 26005KT P6SM SKC
     FM171700 32005KT P6SM SKC
     FM172300 14005KT P6SM FEW100=



000
FTUS43 KBIS 171100
TAFBIS
TAF
KBIS 171120Z 1712/1812 VRB04KT P6SM SKC
     FM180100 08006KT P6SM FEW100=



000
FTUS43 KBIS 171100
TAFMOT
TAF
KMOT 171120Z 1712/1812 23009KT P6SM SKC
     FM171400 29011KT P6SM SKC
     FM180100 09007KT P6SM SKC=



000
FTUS43 KBIS 171100
TAFISN
TAF
KISN 171120Z 1712/1812 VRB05KT P6SM SKC
     FM172200 09005KT P6SM SKC=



000
FTUS43 KBIS 171100
TAFMOT
TAF
KMOT 171120Z 1712/1812 23009KT P6SM SKC
     FM171400 29011KT P6SM SKC
     FM180100 09007KT P6SM SKC=



000
FTUS43 KBIS 170500
TAFBIS
TAF
KBIS 170533Z 1706/1806 VRB03KT P6SM SKC
     FM180200 08006KT P6SM FEW100=



000
FTUS43 KBIS 170500
TAFISN
TAF
KISN 170533Z 1706/1806 VRB06KT P6SM SKC
     FM172200 09005KT P6SM SKC=



000
FTUS43 KBIS 170500
TAFMOT
TAF
KMOT 170533Z 1706/1806 23007KT P6SM SKC
     FM171300 29010KT P6SM SKC
     FM180100 07007KT P6SM SKC=



000
FTUS43 KBIS 170500
TAFJMS
TAF
KJMS 170533Z 1706/1806 31005KT P6SM SKC
     FM171700 31010KT P6SM SKC
     FM180100 05007KT P6SM FEW100=



000
FTUS43 KBIS 170500
TAFDIK
TAF
KDIK 170533Z 1706/1806 23005KT P6SM SKC
     FM171600 32005KT P6SM SKC
     FM172300 11005KT P6SM FEW100=



000
FTUS43 KBIS 170300 AAA
TAFMOT
TAF AMD
KMOT 170302Z 1703/1724 26005KT P6SM SKC
     FM170500 23006KT P6SM SCT300
     FM171500 28010KT P6SM SKC
     FM171900 33008KT P6SM SKC=



000
FTUS43 KBIS 170300 AAA
TAFISN
TAF AMD
KISN 170302Z 1703/1724 25004KT P6SM SKC
     FM170400 25004KT P6SM FEW200 SCT300
     FM171500 29007KT P6SM SKC
     FM171800 36006KT P6SM SKC
     FM172100 04006KT P6SM SKC=



000
FTUS43 KBIS 170300 AAA
TAFJMS
TAF AMD
KJMS 170302Z 1703/1724 34006KT P6SM SKC
     FM170700 28004KT P6SM SKC
     FM171600 29010KT P6SM SKC
     FM172000 32009KT P6SM SKC=



000
FTUS43 KBIS 170300 AAA
TAFDIK
TAF AMD
KDIK 170302Z 1703/1724 VRB03KT P6SM SKC
     FM170800 25005KT P6SM SKC
     FM171400 28007KT P6SM SKC
     FM171800 35007KT P6SM SKC
     FM172100 04006KT P6SM SKC=



000
FTUS43 KBIS 170300 AAA
TAFBIS
TAF AMD
KBIS 170301Z 1703/1724 35003KT P6SM SKC
     FM170500 VRB03KT P6SM SKC
     FM171300 28005KT P6SM FEW300
     FM171900 34007KT P6SM FEW300=



000
FTUS43 KBIS 162300
TAFDIK
TAF
KDIK 162321Z 1700/1724 34011KT P6SM FEW130
     FM170200 VRB03KT P6SM SKC
     FM170800 25005KT P6SM SKC
     FM171400 28007KT P6SM SKC
     FM171800 35007KT P6SM SKC
     FM172100 04006KT P6SM SKC=



000
FTUS43 KBIS 162300
TAFISN
TAF
KISN 162321Z 1700/1724 31006KT P6SM SKC
     FM170200 26004KT P6SM SKC
     FM170400 25004KT P6SM FEW200 SCT300
     FM171500 29007KT P6SM SKC
     FM171800 36006KT P6SM SKC
     FM172100 04006KT P6SM SKC=



000
FTUS43 KBIS 162300
TAFJMS
TAF
KJMS 162321Z 1700/1724 36011KT P6SM FEW120
     FM170300 34006KT P6SM SKC
     FM170700 28004KT P6SM SKC
     FM171600 29010KT P6SM SKC
     FM172000 32009KT P6SM SKC=



000
FTUS43 KBIS 162300
TAFBIS
TAF
KBIS 162321Z 1700/1724 02011KT P6SM FEW140
     FM170200 35003KT P6SM SKC
     FM170500 VRB03KT P6SM SKC
     FM171300 28005KT P6SM FEW300
     FM171900 34007KT P6SM FEW300=



000
FTUS43 KBIS 162300
TAFDIK
TAF
KDIK 162321Z 1700/1724 34011KT P6SM FEW130
     FM170200 VRB03KT P6SM SKC
     FM170800 25005KT P6SM SKC
     FM171400 28007KT P6SM SKC
     FM171800 35007KT P6SM SKC
     FM172100 04006KT P6SM SKC=



000
FTUS43 KBIS 162300
TAFMOT
TAF
KMOT 162321Z 1700/1724 30008KT P6SM SKC
     FM170200 25005KT P6SM SKC
     FM170500 23006KT P6SM SCT300
     FM171500 28010KT P6SM SKC
     FM171900 33008KT P6SM SKC=



000
FTUS43 KBIS 162300
TAFJMS
TAF
KJMS 162321Z 1700/1724 36011KT P6SM FEW120
     FM170300 34006KT P6SM SKC
     FM170700 28004KT P6SM SKC
     FM171600 29010KT P6SM SKC
     FM172000 32009KT P6SM SKC=



000
FTUS43 KBIS 162300
TAFMOT
TAF
KMOT 162321Z 1700/1724 30008KT P6SM SKC
     FM170200 25005KT P6SM SKC
     FM170500 23006KT P6SM SCT300
     FM171500 28010KT P6SM SKC
     FM171900 33008KT P6SM SKC=



000
FTUS43 KBIS 162300
TAFISN
TAF
KISN 162321Z 1700/1724 31006KT P6SM SKC
     FM170200 26004KT P6SM SKC
     FM170400 25004KT P6SM FEW200 SCT300
     FM171500 29007KT P6SM SKC
     FM171800 36006KT P6SM SKC
     FM172100 04006KT P6SM SKC=



000
FTUS43 KBIS 162300
TAFBIS
TAF
KBIS 162321Z 1700/1724 02011KT P6SM FEW140
     FM170200 35003KT P6SM SKC
     FM170500 VRB03KT P6SM SKC
     FM171300 28005KT P6SM FEW300
     FM171900 34007KT P6SM FEW300=



000
FTUS43 KBIS 161700
TAFISN
TAF
KISN 161721Z 1618/1718 31006KT P6SM SKC
     FM170100 27004KT P6SM SKC=



000
FTUS43 KBIS 161700
TAFDIK
TAF
KDIK 161721Z 1618/1718 35014G23KT P6SM SCT100
     FM170200 VRB04KT P6SM SKC=



000
FTUS43 KBIS 161700
TAFBIS
TAF
KBIS 161721Z 1618/1718 36015KT P6SM SCT100
     FM170200 02003KT P6SM SKC=



000
FTUS43 KBIS 161700
TAFMOT
TAF
KMOT 161721Z 1618/1718 33015G23KT P6SM SCT120
     FM170200 23005KT P6SM SKC=



000
FTUS43 KBIS 161700
TAFJMS
TAF
KJMS 161721Z 1618/1718 35016G24KT P6SM SCT100
     FM170100 35007KT P6SM SKC=



000
FTUS43 KBIS 161100
TAFJMS
TAF
KJMS 161120Z 1612/1712 22006KT P6SM SCT035 SCT060 OVC090
     FM161300 30007KT P6SM SCT050 BKN080
     FM161500 36014G20KT P6SM SCT060 BKN080
     FM162000 35014KT P6SM SCT080
     FM170300 35005KT P6SM SKC=



000
FTUS43 KBIS 161100
TAFISN
TAF
KISN 161120Z 1612/1712 34006KT P6SM SCT040 BKN090
     FM161600 35012KT P6SM SCT090
     FM162000 30006KT P6SM SKC
     FM170100 VRB03KT P6SM SKC=



000
FTUS43 KBIS 161100
TAFMOT
TAF
KMOT 161120Z 1612/1712 32014KT P6SM SCT050 BKN080
     FM161500 35015KT P6SM SCT080
     FM170100 VRB05KT P6SM SKC=



000
FTUS43 KBIS 161100
TAFBIS
TAF
KBIS 161120Z 1612/1712 33007KT P6SM SCT060 BKN080
     FM161500 36012G18KT P6SM BKN080
     FM162100 34007KT P6SM SCT100
     FM170100 VRB03KT P6SM SKC=



000
FTUS43 KBIS 161100
TAFMOT
TAF
KMOT 161120Z 1612/1712 32014KT P6SM SCT050 BKN080
     FM161500 35015KT P6SM SCT080
     FM170100 VRB05KT P6SM SKC=



000
FTUS43 KBIS 161100
TAFJMS
TAF
KJMS 161120Z 1612/1712 22006KT P6SM SCT035 SCT060 OVC090
     FM161300 30007KT P6SM SCT050 BKN080
     FM161500 36014G20KT P6SM SCT060 BKN080
     FM162000 35014KT P6SM SCT080
     FM170300 35005KT P6SM SKC=



000
FTUS43 KBIS 161100
TAFDIK
TAF
KDIK 161120Z 1612/1712 35012KT P6SM VCSH BKN050 OVC070
     FM161500 36014G18KT P6SM BKN090
     FM162100 36010KT P6SM SCT100
     FM170300 VRB05KT P6SM SKC=



000
FTUS43 KBIS 161100
TAFDIK
TAF
KDIK 161120Z 1612/1712 35012KT P6SM VCSH BKN050 OVC070
     FM161500 36014G18KT P6SM BKN090
     FM162100 36010KT P6SM SCT100
     FM170300 VRB05KT P6SM SKC=



000
FTUS43 KBIS 161100
TAFBIS
TAF
KBIS 161120Z 1612/1712 33007KT P6SM SCT060 BKN080
     FM161500 36012G18KT P6SM BKN080
     FM162100 34007KT P6SM SCT100
     FM170100 VRB03KT P6SM SKC=



000
FTUS43 KBIS 161100
TAFISN
TAF
KISN 161120Z 1612/1712 34006KT P6SM SCT040 BKN090
     FM161600 35012KT P6SM SCT090
     FM162000 30006KT P6SM SKC
     FM170100 VRB03KT P6SM SKC=



    US Dept of Commerce
    National Oceanic and Atmospheric Administration
    National Weather Service
    1325 East West Highway
    Silver Spring, MD 20910
    Page Author: NWS Internet Services Team
Disclaimer
Information Quality
Credits
Glossary
Privacy Policy
Freedom of Information Act (FOIA)
About Us
Career Opportunities